Time;durP1;ratioP1;P1;durP2;ratioP2;P2;SDS_P1;SDS_P2;PMS_P1;PMS_P2;Temp;Humidity;BMP_temperature;BMP_pressure;BME280_temperature;BME280_humidity;BME280_pressure;Samples;Min_cycle;Max_cycle;Signal;HPM_P1;HPM_P2
2022/02/20 17:18:11;;;;;;;14.27;3.85;;;12.80;85.00;;;;;;5148924;27;20106;-75
2022/02/20 17:20:38;;;;;;;21.90;4.28;;;12.60;85.80;;;;;;5146223;27;20447;-75
2022/02/20 17:23:04;;;;;;;19.05;3.92;;;12.60;85.80;;;;;;5152267;27;20089;-76
2022/02/20 17:25:29;;;;;;;19.15;3.13;;;12.60;85.80;;;;;;5159105;27;20026;-75
2022/02/20 17:27:55;;;;;;;18.10;3.42;;;12.60;86.00;;;;;;5158390;27;20055;-84
2022/02/20 17:30:21;;;;;;;16.50;3.50;;;12.60;86.10;;;;;;5133395;27;20029;-75
2022/02/20 17:32:47;;;;;;;15.45;3.67;;;12.70;85.70;;;;;;5146250;27;20034;-76
2022/02/20 17:35:13;;;;;;;16.17;3.72;;;12.70;85.70;;;;;;5152539;27;20035;-76
2022/02/20 17:37:46;;;;;;;25.88;4.60;;;12.70;85.60;;;;;;5158060;27;20098;-76
2022/02/20 17:40:12;;;;;;;18.95;3.85;;;12.70;85.70;;;;;;5159811;27;20516;-76
2022/02/20 17:42:43;;;;;;;19.48;4.32;;;12.70;85.80;;;;;;5157470;27;20113;-76
2022/02/20 17:45:13;;;;;;;14.95;3.17;;;12.70;85.60;;;;;;5157882;27;20082;-75
2022/02/20 17:47:39;;;;;;;17.15;4.10;;;12.70;85.60;;;;;;5143437;27;20694;-81
2022/02/20 17:50:07;;;;;;;15.88;3.13;;;12.70;85.60;;;;;;5149977;27;20030;-76
2022/02/20 17:52:33;;;;;;;15.85;3.50;;;12.80;85.60;;;;;;5129291;27;20026;-78
2022/02/20 17:54:58;;;;;;;21.02;4.22;;;12.80;85.40;;;;;;5152491;27;20033;-78
2022/02/20 17:57:24;;;;;;;19.55;3.50;;;12.80;85.50;;;;;;5154825;27;20030;-79
2022/02/20 17:59:50;;;;;;;16.60;3.92;;;12.80;85.50;;;;;;5145836;27;20050;-79
2022/02/20 18:02:16;;;;;;;19.58;3.95;;;12.80;85.40;;;;;;5164228;27;20031;-78
2022/02/20 18:04:42;;;;;;;18.30;3.13;;;12.70;85.40;;;;;;5149075;27;20471;-79
2022/02/20 18:07:08;;;;;;;17.38;3.10;;;12.80;85.40;;;;;;5148466;27;20119;-79
2022/02/20 18:09:35;;;;;;;20.30;3.80;;;12.70;85.40;;;;;;5134198;27;20435;-78
2022/02/20 18:12:02;;;;;;;18.33;3.95;;;12.80;85.50;;;;;;5149482;27;20035;-77
2022/02/20 18:14:28;;;;;;;17.13;4.38;;;12.80;85.40;;;;;;5160596;27;20018;-79
2022/02/20 18:16:56;;;;;;;24.00;5.20;;;12.80;85.50;;;;;;5164560;27;20048;-78
2022/02/20 18:19:22;;;;;;;21.45;3.97;;;12.70;85.40;;;;;;5150902;27;20059;-81
2022/02/20 18:21:49;;;;;;;17.30;3.58;;;12.80;85.60;;;;;;5147586;27;20456;-81
2022/02/20 18:24:16;;;;;;;20.60;5.28;;;12.70;85.60;;;;;;5118077;27;20118;-77
2022/02/20 18:26:43;;;;;;;18.10;3.92;;;12.80;85.80;;;;;;5144400;27;20047;-77
2022/02/20 18:29:09;;;;;;;16.42;3.42;;;12.80;85.80;;;;;;5139423;27;20461;-77
2022/02/20 18:31:38;;;;;;;17.02;3.70;;;12.70;85.90;;;;;;5134655;27;20102;-76
2022/02/20 18:34:04;;;;;;;15.20;3.35;;;12.80;86.90;;;;;;5130884;27;20481;-76
2022/02/20 18:36:30;;;;;;;21.17;3.72;;;12.70;86.00;;;;;;5111819;27;20031;-76
2022/02/20 18:38:57;;;;;;;19.25;3.75;;;12.80;86.10;;;;;;5131723;27;20023;-76
2022/02/20 18:41:23;;;;;;;13.82;3.35;;;12.80;86.20;;;;;;5116402;27;20027;-76
2022/02/20 18:43:53;;;;;;;15.88;3.33;;;12.70;86.20;;;;;;5135776;27;20090;-76
2022/02/20 18:46:19;;;;;;;20.27;3.70;;;12.70;86.40;;;;;;5115663;27;20023;-75
2022/02/20 18:48:44;;;;;;;15.50;3.40;;;12.70;86.50;;;;;;5134339;27;20028;-75
2022/02/20 18:51:10;;;;;;;19.23;3.60;;;12.70;86.50;;;;;;5131134;27;20515;-75
2022/02/20 18:53:36;;;;;;;14.13;3.50;;;12.70;86.60;;;;;;5147804;27;20055;-75
2022/02/20 18:56:01;;;;;;;16.50;3.72;;;12.70;86.60;;;;;;5132417;27;20075;-75
2022/02/20 18:58:27;;;;;;;18.38;3.30;;;12.70;86.60;;;;;;5134067;27;20495;-76
2022/02/20 19:00:52;;;;;;;23.02;3.70;;;12.70;86.70;;;;;;5134038;27;20138;-76
2022/02/20 19:03:18;;;;;;;20.92;3.08;;;12.70;86.70;;;;;;5116311;27;20018;-76
2022/02/20 19:05:44;;;;;;;15.98;3.17;;;12.70;86.50;;;;;;5139139;27;20019;-76
2022/02/20 19:08:11;;;;;;;16.58;3.38;;;12.70;86.30;;;;;;5118661;27;20020;-76
2022/02/20 19:10:37;;;;;;;18.40;4.07;;;12.70;86.40;;;;;;5145126;27;20102;-75
2022/02/20 19:13:03;;;;;;;23.30;4.18;;;12.80;86.20;;;;;;5142438;27;20186;-76
2022/02/20 19:15:28;;;;;;;18.55;3.28;;;12.80;86.10;;;;;;5141847;27;20027;-76
2022/02/20 19:17:54;;;;;;;22.13;4.20;;;12.80;85.90;;;;;;5145305;27;20447;-75
2022/02/20 19:20:20;;;;;;;15.20;3.95;;;12.80;85.80;;;;;;5132203;27;20026;-75
2022/02/20 19:22:46;;;;;;;14.35;3.47;;;12.80;85.80;;;;;;5136906;27;20055;-76
2022/02/20 19:25:13;;;;;;;20.95;3.83;;;12.80;85.80;;;;;;5121895;27;20108;-76
2022/02/20 19:27:39;;;;;;;22.85;3.97;;;12.80;86.00;;;;;;5142485;27;20429;-77
2022/02/20 19:30:07;;;;;;;16.70;3.13;;;12.80;86.20;;;;;;5129121;27;20120;-79
2022/02/20 19:32:35;;;;;;;22.75;4.70;;;12.80;86.60;;;;;;5109684;27;20110;-79
2022/02/20 19:35:02;;;;;;;18.25;3.92;;;12.80;87.10;;;;;;5114374;27;20127;-79
2022/02/20 19:37:32;;;;;;;17.83;3.65;;;12.80;87.30;;;;;;5131905;27;20039;-78
2022/02/20 19:40:00;;;;;;;19.13;3.78;;;12.80;87.90;;;;;;5123258;27;20023;-81
2022/02/20 19:42:26;;;;;;;21.00;3.80;;;12.70;88.20;;;;;;5128645;27;20035;-76
2022/02/20 19:44:52;;;;;;;16.77;3.83;;;12.70;88.80;;;;;;5120618;27;20027;-75
2022/02/20 19:47:18;;;;;;;20.38;3.53;;;12.60;89.90;;;;;;5130405;27;20015;-76
2022/02/20 19:49:45;;;;;;;15.88;3.65;;;12.50;90.80;;;;;;5132091;27;20016;-76
2022/02/20 19:52:11;;;;;;;17.73;3.70;;;12.50;91.40;;;;;;5130403;27;20502;-75
2022/02/20 19:54:37;;;;;;;22.52;4.00;;;12.40;92.00;;;;;;5132905;27;20016;-74
2022/02/20 19:57:03;;;;;;;16.15;3.08;;;12.30;92.60;;;;;;5128418;27;20050;-75
2022/02/20 19:59:29;;;;;;;15.85;2.85;;;12.20;93.10;;;;;;5131510;27;20019;-75
2022/02/20 20:01:56;;;;;;;17.02;3.58;;;12.10;93.70;;;;;;5132173;27;20720;-74
2022/02/20 20:04:23;;;;;;;18.67;3.63;;;12.10;93.70;;;;;;5130291;27;20729;-75
2022/02/20 20:06:58;;;;;;;17.48;3.92;;;12.10;94.00;;;;;;5110634;27;20113;-75
2022/02/20 20:09:24;;;;;;;13.95;3.70;;;12.00;94.60;;;;;;5108707;27;20034;-75
2022/02/20 20:11:50;;;;;;;12.20;2.72;;;12.00;93.80;;;;;;5128444;27;20035;-75
2022/02/20 20:14:16;;;;;;;13.02;3.13;;;12.00;94.40;;;;;;5131911;27;20011;-75
2022/02/20 20:16:43;;;;;;;12.35;3.13;;;12.00;94.50;;;;;;5130384;27;20114;-75
2022/02/20 20:19:09;;;;;;;15.50;3.20;;;12.00;94.90;;;;;;5111137;27;20026;-75
2022/02/20 20:21:34;;;;;;;13.13;3.33;;;12.00;94.90;;;;;;5130275;27;20027;-75
2022/02/20 20:24:00;;;;;;;11.63;2.80;;;12.00;94.80;;;;;;5128708;27;20041;-75
2022/02/20 20:26:26;;;;;;;9.82;2.38;;;12.00;95.20;;;;;;5131028;27;20023;-75
2022/02/20 20:28:51;;;;;;;10.82;2.40;;;12.00;95.30;;;;;;5109430;27;20030;-75
2022/02/20 20:31:18;;;;;;;10.80;2.45;;;12.00;95.40;;;;;;5126562;27;20052;-75
2022/02/20 20:33:45;;;;;;;11.18;2.25;;;11.90;95.30;;;;;;5127007;27;20498;-75
2022/02/20 20:36:11;;;;;;;10.73;2.50;;;12.00;96.10;;;;;;5125565;27;20074;-76
2022/02/20 20:38:37;;;;;;;11.68;2.42;;;12.00;95.90;;;;;;5109069;27;20046;-75
2022/02/20 20:41:03;;;;;;;8.68;2.13;;;11.90;95.80;;;;;;5128824;27;20027;-75
2022/02/20 20:43:33;;;;;;;8.20;2.13;;;11.90;95.90;;;;;;5131501;27;20030;-75
2022/02/20 20:46:00;;;;;;;8.32;2.20;;;11.90;96.10;;;;;;5125013;27;20113;-76
2022/02/20 20:48:26;;;;;;;9.50;2.58;;;12.00;96.20;;;;;;5126746;27;20099;-76
2022/02/20 20:50:52;;;;;;;12.68;2.50;;;11.90;96.30;;;;;;5128066;27;20053;-76
2022/02/20 20:53:17;;;;;;;8.23;1.90;;;12.00;96.40;;;;;;5131312;27;20491;-77
2022/02/20 20:55:43;;;;;;;9.48;2.15;;;12.00;96.80;;;;;;5130587;27;20098;-77
2022/02/20 20:58:09;;;;;;;6.40;2.00;;;12.00;96.40;;;;;;5129572;27;20525;-76
2022/02/20 21:00:36;;;;;;;10.00;1.85;;;12.00;96.40;;;;;;5129019;27;20027;-76
2022/02/20 21:03:02;;;;;;;11.50;2.28;;;12.00;96.20;;;;;;5124984;27;20114;-76
2022/02/20 21:05:27;;;;;;;8.90;1.77;;;12.00;95.80;;;;;;5130333;27;20688;-76
2022/02/20 21:07:53;;;;;;;9.90;2.00;;;12.00;95.80;;;;;;5130922;27;20022;-76
2022/02/20 21:10:19;;;;;;;6.35;1.65;;;12.10;95.60;;;;;;5129216;27;20033;-75
2022/02/20 21:12:44;;;;;;;6.60;1.50;;;12.10;95.30;;;;;;5129391;27;20046;-75
2022/02/20 21:15:11;;;;;;;4.50;1.40;;;12.20;95.00;;;;;;5127012;27;20027;-76
2022/02/20 21:17:39;;;;;;;7.97;1.63;;;12.20;94.80;;;;;;5111016;28;20047;-75
2022/02/20 21:20:05;;;;;;;5.57;1.73;;;12.20;94.50;;;;;;5131095;27;20395;-76
2022/02/20 21:22:31;;;;;;;6.88;1.42;;;12.30;94.40;;;;;;5132003;27;20478;-76
2022/02/20 21:24:57;;;;;;;8.10;1.77;;;12.30;94.20;;;;;;5137382;27;20044;-76
2022/02/20 21:27:23;;;;;;;5.35;1.30;;;12.30;94.70;;;;;;5112734;27;20027;-75
2022/02/20 21:29:49;;;;;;;3.67;1.30;;;12.30;95.40;;;;;;5126870;27;20029;-76
2022/02/20 21:32:16;;;;;;;5.38;1.85;;;12.20;96.00;;;;;;5133788;27;20027;-75
2022/02/20 21:34:42;;;;;;;5.00;1.20;;;12.10;96.50;;;;;;5129347;27;20023;-76
2022/02/20 21:37:07;;;;;;;6.20;1.70;;;12.10;97.50;;;;;;5130493;27;20039;-76
2022/02/20 21:39:33;;;;;;;2.72;1.15;;;12.10;97.30;;;;;;5128667;27;20391;-77
2022/02/20 21:41:59;;;;;;;3.75;1.10;;;12.00;97.50;;;;;;5130438;27;20035;-76
2022/02/20 21:44:25;;;;;;;4.85;1.30;;;12.00;97.90;;;;;;5125866;28;20019;-78
2022/02/20 21:46:50;;;;;;;4.38;0.80;;;12.00;98.00;;;;;;5129552;28;20036;-77
2022/02/20 21:49:16;;;;;;;2.80;0.98;;;12.00;98.00;;;;;;5128278;27;20015;-78
2022/02/20 21:51:42;;;;;;;12.27;1.88;;;11.90;97.40;;;;;;5111360;28;20387;-77
2022/02/20 21:54:07;;;;;;;12.75;1.83;;;11.70;95.20;;;;;;5128915;27;20084;-77
2022/02/20 21:56:33;;;;;;;14.60;2.92;;;11.40;95.20;;;;;;5128392;27;20047;-77
2022/02/20 21:58:59;;;;;;;15.80;3.05;;;11.20;94.60;;;;;;5132128;27;20031;-80
2022/02/20 22:01:25;;;;;;;19.02;3.13;;;11.00;94.00;;;;;;5128987;27;20189;-77
2022/02/20 22:03:50;;;;;;;18.13;3.22;;;10.80;93.00;;;;;;5131656;27;20027;-77
2022/02/20 22:06:16;;;;;;;17.27;3.17;;;10.60;92.60;;;;;;5115194;27;20027;-74
2022/02/20 22:08:42;;;;;;;16.02;3.60;;;10.40;92.10;;;;;;5133643;27;20067;-77
2022/02/20 22:11:08;;;;;;;23.77;3.30;;;10.30;91.80;;;;;;5134065;27;20041;-77
2022/02/20 22:13:33;;;;;;;20.27;3.50;;;10.10;91.30;;;;;;5114383;27;20038;-77
2022/02/20 22:15:59;;;;;;;22.73;3.60;;;10.00;91.20;;;;;;5133276;27;20032;-77
2022/02/20 22:18:25;;;;;;;17.63;3.30;;;10.00;89.60;;;;;;5132893;27;20019;-77
2022/02/20 22:20:52;;;;;;;18.98;2.97;;;9.90;90.10;;;;;;5113975;27;20023;-76
2022/02/20 22:23:19;;;;;;;19.65;3.50;;;9.90;89.10;;;;;;5134622;27;20096;-76
2022/02/20 22:25:44;;;;;;;17.88;3.05;;;9.80;87.20;;;;;;5133894;27;20498;-77
2022/02/20 22:28:10;;;;;;;20.25;3.33;;;9.80;87.70;;;;;;5132813;27;20035;-77
2022/02/20 22:30:36;;;;;;;23.80;3.25;;;9.80;84.90;;;;;;5133559;27;20117;-77
2022/02/20 22:33:03;;;;;;;21.30;3.70;;;9.90;83.70;;;;;;5133448;27;20026;-77
2022/02/20 22:35:29;;;;;;;16.77;3.40;;;9.80;84.10;;;;;;5133786;27;20073;-77
2022/02/20 22:37:54;;;;;;;13.50;2.83;;;9.80;84.80;;;;;;5133305;27;20039;-77
2022/02/20 22:40:20;;;;;;;20.70;2.65;;;9.80;86.40;;;;;;5132885;27;20019;-77
2022/02/20 22:42:46;;;;;;;21.38;3.28;;;9.90;86.20;;;;;;5132661;27;20080;-77
2022/02/20 22:45:12;;;;;;;20.80;3.60;;;9.90;84.20;;;;;;5132999;27;20057;-77
2022/02/20 22:47:38;;;;;;;15.43;3.60;;;9.90;85.10;;;;;;5132400;27;20035;-77
2022/02/20 22:50:08;;;;;;;23.58;3.78;;;9.90;85.30;;;;;;5134241;27;20023;-77
2022/02/20 22:52:34;;;;;;;23.17;3.95;;;9.90;86.30;;;;;;5113392;27;20031;-77
2022/02/20 22:55:00;;;;;;;20.08;3.70;;;9.90;84.60;;;;;;5114860;27;20479;-77
2022/02/20 22:57:26;;;;;;;18.48;3.55;;;9.90;86.80;;;;;;5133928;27;20035;-77
2022/02/20 22:59:51;;;;;;;24.25;3.90;;;9.90;87.10;;;;;;5113286;27;20503;-77
2022/02/20 23:02:18;;;;;;;23.80;3.78;;;9.90;83.60;;;;;;5133710;27;20031;-78
2022/02/20 23:04:43;;;;;;;22.55;4.13;;;9.90;83.40;;;;;;5132175;27;20023;-77
2022/02/20 23:07:09;;;;;;;23.85;4.30;;;9.90;82.40;;;;;;5131600;27;20038;-78
2022/02/20 23:09:35;;;;;;;26.58;4.50;;;9.90;84.80;;;;;;5129600;27;20514;-78
2022/02/20 23:12:01;;;;;;;27.13;4.47;;;9.90;80.40;;;;;;5132233;27;20487;-78
2022/02/20 23:14:27;;;;;;;26.50;4.78;;;9.80;82.40;;;;;;5133238;27;20012;-78
2022/02/20 23:16:54;;;;;;;28.10;4.28;;;9.90;81.20;;;;;;5133716;27;20527;-78
2022/02/20 23:19:20;;;;;;;25.63;4.15;;;9.80;81.90;;;;;;5132683;27;20060;-78
2022/02/20 23:21:46;;;;;;;23.25;4.53;;;9.80;78.90;;;;;;5132411;27;20039;-78
2022/02/20 23:24:12;;;;;;;26.88;4.68;;;9.80;80.60;;;;;;5112609;27;20071;-77
2022/02/20 23:26:38;;;;;;;25.90;4.35;;;9.80;79.20;;;;;;5132304;27;20061;-77
2022/02/20 23:29:05;;;;;;;27.63;4.63;;;9.80;78.40;;;;;;5134462;27;20468;-78
2022/02/20 23:31:32;;;;;;;24.15;4.40;;;9.80;79.90;;;;;;5112600;27;20096;-77
2022/02/20 23:33:58;;;;;;;26.45;4.20;;;9.80;77.60;;;;;;5130855;27;20372;-78
2022/02/20 23:36:24;;;;;;;24.30;4.00;;;9.70;78.40;;;;;;5113996;27;20436;-78
2022/02/20 23:38:50;;;;;;;21.60;4.07;;;9.80;78.60;;;;;;5132475;27;20059;-77
2022/02/20 23:41:16;;;;;;;23.50;4.22;;;9.80;77.90;;;;;;5133942;27;20486;-77
2022/02/20 23:43:46;;;;;;;23.67;3.90;;;9.80;77.30;;;;;;5132836;27;20027;-78
2022/02/20 23:46:12;;;;;;;24.45;4.53;;;9.80;76.30;;;;;;5113573;27;20035;-78
2022/02/20 23:48:38;;;;;;;17.15;2.78;;;9.80;76.90;;;;;;5113754;27;20015;-78
2022/02/20 23:51:04;;;;;;;20.63;3.85;;;9.80;74.90;;;;;;5132134;27;20039;-78
2022/02/20 23:53:30;;;;;;;22.45;3.95;;;9.70;75.50;;;;;;5132835;27;20020;-77
2022/02/20 23:55:56;;;;;;;20.48;3.58;;;9.80;74.40;;;;;;5131587;27;20475;-78
2022/02/20 23:58:22;;;;;;;19.25;3.88;;;9.70;74.90;;;;;;5115695;27;20050;-78
